Latest Weather Observations for Lucas Heights (ANSTO)

IDN60801

Issued at 2:02 pm EDT Monday 18 November 2019 (issued every 10 minutes, with the page automatically refreshed every 10 minutes)

About weather observations | Map of weather stations | Latest weather observations for NSW | Other Formats
Station Details ID: 066023 Name: LUCAS HEIGHTS (ANSTO) Lat: -34.05 Lon: 150.98 Height: 140.0 m
Data from the previous 72 hours. | See also: Recent months for locations in New South Wales
Date/Time
EDT
Temp
°C
App
Temp
°C
Dew
Point
°C
Rel
Hum
%
Delta-T
°C
Wind Press
QNH
hPa
Press
MSL
hPa
Rain since
9am
mm
Dir  Spd
km/h
Gust
km/h
Spd
kts
Gust
kts
18/01:45pm 25.7 23.0 9.0 34 9.1 N 13 22 7 12 1014.4 - 0.0
18/01:30pm 25.1 22.1 9.2 36 8.7 NW 15 24 8 13 1014.7 - 0.0
18/01:15pm 24.9 21.9 9.4 37 8.5 N 15 26 8 14 1015.0 - 0.0
18/01:00pm 24.9 22.4 9.8 38 8.3 NNW 13 26 7 14 1015.3 - 0.0
18/12:45pm 23.8 20.5 9.5 40 7.8 NW 17 26 9 14 1015.5 - 0.0
18/12:30pm 23.7 20.3 9.2 39 7.9 NW 17 24 9 13 1015.8 - 0.0
18/12:15pm 23.6 20.3 9.7 41 7.6 NNW 17 28 9 15 1016.2 - 0.0
18/12:00pm 22.9 19.2 9.6 42 7.2 NNW 19 28 10 15 1016.6 - 0.0
18/11:45am 22.8 19.6 9.9 44 7.1 NW 17 24 9 13 1016.9 - 0.0
18/11:30am 22.3 18.3 10.3 46 6.6 NNW 22 30 12 16 1017.1 - 0.0
18/11:15am 22.0 18.4 10.7 48 6.2 NNW 20 30 11 16 1017.4 - 0.0
18/11:00am 21.7 18.5 11.1 51 5.9 NNW 19 30 10 16 1017.7 - 0.0
18/10:45am 21.1 17.7 11.4 54 5.4 NNW 20 33 11 18 1018.0 - 0.0
18/10:30am 20.5 17.4 11.7 57 4.9 N 19 30 10 16 1018.2 - 0.0
18/10:15am 20.0 16.3 11.4 57 4.8 NNW 22 33 12 18 1018.5 - 0.0
18/10:00am 20.1 17.1 11.8 59 4.6 N 19 28 10 15 1018.7 - 0.0
18/09:45am 19.0 15.0 11.7 62 4.0 NNW 24 30 13 16 1019.0 - 0.0
18/09:30am 18.7 15.0 11.5 63 4.0 NNW 22 30 12 16 1019.2 - 0.0
18/09:15am 19.1 16.5 12.1 64 3.9 NW 17 24 9 13 1019.3 - 0.0
18/09:00am 18.2 15.9 11.7 66 3.6 NNW 15 24 8 13 1019.3 - 0.0
18/08:45am 17.9 15.2 11.6 66 3.5 NNW 17 24 9 13 1019.2 - 0.0
18/08:30am 17.6 15.3 11.7 68 3.2 NNW 15 24 8 13 1019.2 - 0.0
18/08:15am 17.1 15.6 11.9 71 2.9 NW 11 17 6 9 1019.2 - 0.0
18/08:00am 16.7 15.6 11.9 73 2.6 NW 9 13 5 7 1019.1 - 0.0
18/07:45am 16.2 15.5 12.0 76 2.3 NW 7 11 4 6 1019.1 - 0.0
18/07:30am 15.0 14.0 12.2 83 1.5 NW 9 13 5 7 1019.1 - 0.0
18/07:15am 13.8 13.2 11.7 87 1.1 NW 6 9 3 5 1019.0 - 0.0
18/07:00am 12.6 11.1 10.7 88 1.0 WNW 9 11 5 6 1018.9 - 0.0
18/06:45am 11.9 10.2 10.0 88 1.0 WNW 9 9 5 5 1018.8 - 0.0
18/06:30am 11.7 10.0 9.8 88 1.0 WNW 9 9 5 5 1018.8 - 0.0
18/06:15am 11.6 9.9 9.7 88 1.0 WNW 9 9 5 5 1018.8 - 0.0
18/06:00am 11.7 10.3 9.7 87 1.0 NNW 7 7 4 4 1018.6 - 0.0
18/05:45am 11.7 10.5 9.7 87 1.0 NNW 6 7 3 4 1018.6 - 0.0
18/05:30am 11.7 10.9 9.7 87 1.0 NNW 4 6 2 3 1018.6 - 0.0
18/05:15am 11.7 11.2 9.5 86 1.1 N 2 4 1 2 1018.6 - 0.0
18/05:00am 12.0 11.9 9.6 85 1.2 CALM 0 2 0 1 1018.6 - 0.0
18/04:45am 12.3 12.3 9.8 85 1.3 CALM 0 2 0 1 1018.5 - 0.0
18/04:30am 12.7 12.3 9.9 83 1.4 NNE 2 2 1 1 1018.5 - 0.0
18/04:15am 13.3 13.1 10.3 82 1.6 ENE 2 4 1 2 1018.6 - 0.0
18/04:00am 13.5 13.3 10.4 81 1.6 NNE 2 4 1 2 1018.8 - 0.0
18/03:45am 13.6 13.4 10.5 81 1.6 NE 2 4 1 2 1018.9 - 0.0
18/03:30am 13.6 13.0 10.4 81 1.7 E 4 4 2 2 1019.2 - 0.0
18/03:15am 13.6 12.7 10.5 81 1.6 E 6 6 3 3 1019.2 - 0.0
18/03:00am 13.5 12.5 10.4 81 1.6 E 6 7 3 4 1019.2 - 0.0
18/02:45am 13.5 12.5 10.3 81 1.7 ENE 6 7 3 4 1019.3 - 0.0
18/02:30am 13.8 12.8 10.3 79 1.8 E 6 7 3 4 1019.5 - 0.0
18/02:15am 14.2 13.3 10.5 78 2.0 E 6 7 3 4 1019.7 - 0.0
18/02:00am 14.4 13.3 10.6 78 2.0 E 7 7 4 4 1019.9 - 0.0
18/01:45am 14.5 13.4 10.7 78 2.0 ESE 7 9 4 5 1020.1 - 0.0
18/01:30am 14.4 12.9 10.6 78 2.0 ESE 9 9 5 5 1020.2 - 0.0
18/01:15am 14.5 13.0 10.7 78 2.0 ESE 9 9 5 5 1021.0 - 0.0
18/01:00am 14.6 12.8 10.7 77 2.1 E 11 11 6 6 1020.4 - 0.0
18/12:45am 14.7 12.5 10.7 77 2.1 E 13 13 7 7 1020.5 - 0.0
18/12:30am 14.9 13.1 10.8 76 2.2 E 11 13 6 7 1020.7 - 0.0
18/12:15am 15.0 13.2 10.9 76 2.2 ESE 11 13 6 7 1020.8 - 0.0
18/12:00am 15.0 13.2 11.0 77 2.1 ESE 11 13 6 7 1020.9 - 0.0
 
Date/Time
EDT
Temp
°C
App
Temp
°C
Dew
Point
°C
Rel
Hum
%
Delta-T
°C
Wind Press
QNH
hPa
Press
MSL
hPa
Rain since
9am
mm
Dir  Spd
km/h
Gust
km/h
Spd
kts
Gust
kts
17/11:45pm 15.2 13.5 11.1 76 2.2 E 11 15 6 8 1020.9 - 0.0
17/11:30pm 15.3 14.0 11.1 76 2.3 ESE 9 13 5 7 1021.0 - 0.0
17/11:15pm 15.5 13.4 11.2 75 2.3 ESE 13 17 7 9 1020.9 - 0.0
17/11:00pm 15.5 13.4 11.2 75 2.3 ESE 13 17 7 9 1020.9 - 0.0
17/10:45pm 15.6 13.5 11.1 74 2.4 SE 13 15 7 8 1021.0 - 0.0
17/10:30pm 15.7 13.9 10.8 72 2.6 ESE 11 17 6 9 1021.1 - 0.0
17/10:15pm 15.7 13.5 10.7 72 2.7 ESE 13 17 7 9 1021.0 - 0.0
17/10:00pm 15.7 13.1 10.8 72 2.6 ESE 15 22 8 12 1021.0 - 0.0
17/09:45pm 15.8 13.6 10.8 72 2.7 ESE 13 17 7 9 1021.0 - 0.0
17/09:30pm 15.8 13.6 10.8 72 2.7 ESE 13 17 7 9 1020.8 - 0.0
17/09:15pm 15.8 13.2 10.8 72 2.7 ESE 15 19 8 10 1020.6 - 0.0
17/09:00pm 15.7 13.5 10.7 72 2.7 ESE 13 20 7 11 1020.4 - 0.0
17/08:45pm 15.6 13.0 10.6 72 2.7 ESE 15 17 8 9 1020.2 - 0.0
17/08:30pm 15.5 12.1 10.6 72 2.6 ESE 19 22 10 12 1020.0 - 0.0
17/08:15pm 15.3 11.9 10.6 73 2.5 ESE 19 22 10 12 1019.9 - 0.0
17/08:00pm 15.3 12.0 10.8 74 2.4 ESE 19 24 10 13 1019.6 - 0.0
17/07:45pm 15.3 11.9 11.1 76 2.3 ESE 20 24 11 13 1019.3 - 0.0
17/07:30pm 15.2 11.1 11.3 77 2.1 SE 24 30 13 16 1019.2 - 0.0
17/07:15pm 15.2 10.7 11.5 78 2.0 ESE 26 33 14 18 1018.9 - 0.0
17/07:00pm 15.2 10.8 11.8 80 1.8 ESE 26 30 14 16 1018.7 - 0.0
17/06:45pm 15.4 11.8 11.7 78 2.0 ESE 22 28 12 15 1018.6 - 0.0
17/06:30pm 15.4 11.8 11.7 78 2.0 ESE 22 24 12 13 1018.5 - 0.0
17/06:15pm 15.3 12.1 11.8 79 1.9 SE 20 28 11 15 1018.2 - 0.0
17/06:00pm 15.8 12.2 11.7 76 2.2 ESE 22 30 12 16 1017.8 - 0.0
17/05:45pm 16.4 12.3 11.6 73 2.6 ESE 24 33 13 18 1017.6 - 0.0
17/05:30pm 16.4 10.8 11.4 72 2.7 ESE 32 37 17 20 1017.5 - 0.0
17/05:15pm 16.7 11.5 11.6 72 2.8 ESE 30 35 16 19 1017.3 - 0.0
17/05:00pm 16.7 11.1 11.5 71 2.8 ESE 32 37 17 20 1017.2 - 0.0
17/04:45pm 17.0 11.8 11.6 70 3.0 ESE 30 33 16 18 1016.9 - 0.0
17/04:30pm 17.2 12.0 11.7 70 3.0 ESE 30 37 16 20 1016.5 - 0.0
17/04:15pm 17.7 12.6 11.9 69 3.2 ESE 30 37 16 20 1016.3 - 0.0
17/04:00pm 17.3 11.8 12.0 71 2.9 ESE 32 37 17 20 1016.1 - 0.0
17/03:45pm 17.5 12.1 12.1 70 3.0 ESE 32 39 17 21 1016.0 - 0.0
17/03:30pm 17.9 12.5 12.3 70 3.1 ESE 32 41 17 22 1016.0 - 0.0
17/03:15pm 17.7 13.1 12.2 70 3.1 ESE 28 33 15 18 1016.2 - 0.0
17/03:00pm 17.7 12.8 12.5 71 2.9 ESE 30 41 16 22 1016.1 - 0.0
17/02:45pm 17.8 12.3 12.3 70 3.1 ESE 33 41 18 22 1016.0 - 0.0
17/02:30pm 18.4 12.9 12.4 68 3.4 ESE 33 41 18 22 1015.9 - 0.0
17/02:15pm 18.4 12.5 12.5 68 3.3 ESE 35 41 19 22 1015.9 - 0.0
17/02:00pm 18.6 12.4 12.5 67 3.4 ESE 37 44 20 24 1015.9 - 0.0
17/01:45pm 18.8 12.6 12.5 67 3.5 ESE 37 46 20 25 1015.8 - 0.0
17/01:30pm 18.8 12.2 12.5 67 3.5 ESE 39 43 21 23 1015.8 - 0.0
17/01:15pm 19.2 13.9 12.6 65 3.7 ESE 32 41 17 22 1015.8 - 0.0
17/01:00pm 19.0 14.1 12.6 66 3.6 ESE 30 37 16 20 1015.9 - 0.0
17/12:45pm 19.1 13.3 12.7 66 3.6 ESE 35 43 19 23 1015.8 - 0.0
17/12:30pm 19.6 14.8 12.9 65 3.8 SE 30 41 16 22 1015.7 - 0.0
17/12:15pm 19.5 14.2 13.0 66 3.7 ESE 33 39 18 21 1015.6 - 0.0
17/12:00pm 19.4 13.7 13.1 67 3.6 ESE 35 41 19 22 1015.6 - 0.0
17/11:45am 19.1 14.0 13.2 68 3.4 ESE 32 37 17 20 1015.6 - 0.0
17/11:30am 19.8 16.0 13.5 67 3.6 ESE 26 35 14 19 1015.6 - 0.0
17/11:15am 19.3 14.8 13.7 70 3.2 ESE 30 33 16 18 1015.7 - 0.0
17/11:00am 19.1 15.1 14.0 72 2.9 ESE 28 37 15 20 1015.7 - 0.0
17/10:45am 18.4 14.5 14.4 77 2.3 ESE 28 35 15 19 1015.7 - 0.0
17/10:30am 17.5 14.0 14.4 82 1.8 ESE 26 30 14 16 1015.7 - 0.0
17/10:15am 17.7 14.1 14.1 79 2.1 ESE 26 33 14 18 1015.8 - 0.0
17/10:00am 18.4 15.6 14.3 77 2.4 ESE 22 28 12 15 1015.7 - 0.0
17/09:45am 18.2 15.8 14.5 79 2.1 SE 20 24 11 13 1015.7 - 0.0
17/09:30am 17.6 14.8 14.3 81 1.9 SE 22 26 12 14 1015.6 - 0.0
17/09:15am 17.7 15.3 14.4 81 1.9 SE 20 26 11 14 1015.5 - 0.0
17/09:00am 17.7 15.5 14.4 81 1.9 SE 19 24 10 13 1015.3 - 0.0
17/08:45am 17.9 15.7 14.5 80 2.0 SSE 19 24 10 13 1015.1 - 0.0
17/08:30am 17.9 16.9 14.7 81 1.9 SSE 13 19 7 10 1015.0 - 0.0
17/08:15am 17.3 16.7 14.5 83 1.6 SSE 11 17 6 9 1014.8 - 0.0
17/08:00am 16.8 15.7 14.2 85 1.5 SSE 13 17 7 9 1014.9 - 0.0
17/07:45am 16.5 15.7 14.1 86 1.4 S 11 15 6 8 1014.9 - 0.0
17/07:30am 16.2 15.0 13.9 86 1.3 S 13 17 7 9 1014.8 - 0.0
17/07:15am 15.9 14.3 13.8 87 1.2 S 15 19 8 10 1014.8 - 0.0
17/07:00am 15.7 14.0 13.6 87 1.2 S 15 17 8 9 1014.8 - 0.0
17/06:45am 15.5 14.1 13.5 88 1.1 SSE 13 13 7 7 1014.6 - 0.0
17/06:30am 15.3 13.5 13.3 88 1.1 S 15 17 8 9 1014.6 - 0.0
17/06:15am 15.3 13.8 13.2 87 1.2 SSE 13 15 7 8 1014.7 - 0.0
17/06:00am 15.2 13.7 13.2 88 1.1 SSE 13 13 7 7 1014.6 - 0.0
17/05:45am 15.2 13.7 13.2 88 1.1 SSE 13 15 7 8 1014.6 - 0.0
17/05:30am 15.2 13.7 13.1 87 1.2 SSE 13 13 7 7 1014.6 - 0.0
17/05:15am 15.1 13.2 13.0 87 1.2 S 15 17 8 9 1014.6 - 0.0
17/05:00am 15.0 13.1 12.9 87 1.2 S 15 15 8 8 1014.6 - 0.0
17/04:45am 15.0 13.4 12.8 87 1.2 S 13 13 7 7 1014.6 - 0.0
17/04:30am 15.0 13.0 12.8 87 1.2 S 15 17 8 9 1014.7 - 0.0
17/04:15am 15.2 14.0 12.8 85 1.3 SSE 11 13 6 7 1014.8 - 0.0
17/04:00am 15.3 14.1 12.8 85 1.4 SSE 11 11 6 6 1015.0 - 0.0
17/03:45am 15.4 14.9 12.8 84 1.4 SE 7 7 4 4 1015.1 - 0.0
17/03:30am 15.7 15.3 12.9 83 1.6 ESE 7 7 4 4 1015.1 - 0.0
17/03:15am 15.9 15.1 13.0 83 1.6 ESE 9 9 5 5 1015.3 - 0.0
17/03:00am 16.0 15.3 13.1 83 1.6 SE 9 9 5 5 1015.5 - 0.0
17/02:45am 16.0 15.3 13.1 83 1.6 SSE 9 9 5 5 1015.7 - 0.0
17/02:30am 16.1 15.7 13.1 82 1.7 S 7 9 4 5 1015.7 - 0.0
17/02:15am 16.2 15.9 13.2 82 1.7 SE 7 7 4 4 1015.6 - 0.0
17/02:00am 16.3 16.2 13.3 82 1.7 SE 6 7 3 4 1015.8 - 0.0
17/01:45am 16.2 16.1 13.2 82 1.7 E 6 7 3 4 1015.7 - 0.0
17/01:30am 16.2 16.1 13.2 82 1.7 ENE 6 7 3 4 1015.5 - 0.0
17/01:15am 16.1 15.0 13.0 82 1.7 NE 11 13 6 7 1016.1 - 0.0
17/01:00am 16.2 15.8 12.9 81 1.8 NE 7 11 4 6 1015.8 - 0.0
17/12:45am 16.3 15.9 12.9 80 1.9 ESE 7 7 4 4 1016.1 - 0.0
17/12:30am 16.6 15.8 13.0 79 2.0 E 9 11 5 6 1016.3 - 0.0
17/12:15am 16.8 16.0 13.0 78 2.1 ENE 9 11 5 6 1016.6 - 0.0
17/12:00am 16.8 16.4 12.9 78 2.2 E 7 9 4 5 1016.9 - 0.0
 
Date/Time
EDT
Temp
°C
App
Temp
°C
Dew
Point
°C
Rel
Hum
%
Delta-T
°C
Wind Press
QNH
hPa
Press
MSL
hPa
Rain since
9am
mm
Dir  Spd
km/h
Gust
km/h
Spd
kts
Gust
kts
16/11:45pm 16.9 16.5 12.9 77 2.2 E 7 9 4 5 1017.1 - 0.0
16/11:30pm 16.9 16.7 12.9 77 2.2 E 6 7 3 4 1017.3 - 0.0
16/11:15pm 17.0 16.7 12.8 76 2.4 E 6 7 3 4 1017.1 - 0.0
16/11:00pm 17.1 16.6 12.8 76 2.4 E 7 9 4 5 1017.0 - 0.0
16/10:45pm 17.2 16.4 12.8 75 2.5 ENE 9 11 5 6 1016.9 - 0.0
16/10:30pm 17.3 16.9 12.9 75 2.5 E 7 13 4 7 1016.9 - 0.0
16/10:15pm 17.3 16.9 12.9 75 2.5 E 7 9 4 5 1017.0 - 0.0
16/10:00pm 17.3 16.5 12.8 75 2.5 E 9 13 5 7 1016.9 - 0.0
16/09:45pm 17.3 16.8 12.8 75 2.5 E 7 11 4 6 1016.8 - 0.0
16/09:30pm 17.2 16.4 12.8 75 2.5 E 9 13 5 7 1016.7 - 0.0
16/09:15pm 17.1 16.6 12.8 76 2.4 E 7 11 4 6 1016.6 - 0.0
16/09:00pm 17.0 16.1 12.7 76 2.4 ESE 9 13 5 7 1016.3 - 0.0
16/08:45pm 16.9 16.0 12.7 76 2.3 E 9 13 5 7 1016.0 - 0.0
16/08:30pm 16.9 16.0 12.6 76 2.4 E 9 13 5 7 1015.9 - 0.0
16/08:15pm 16.9 16.0 12.5 75 2.4 E 9 13 5 7 1015.6 - 0.0
16/08:00pm 17.1 15.8 12.5 74 2.6 ESE 11 17 6 9 1015.6 - 0.0
16/07:45pm 17.2 15.1 12.5 74 2.6 E 15 19 8 10 1015.3 - 0.0
16/07:30pm 17.4 15.7 12.5 73 2.7 E 13 17 7 9 1015.1 - 0.0
16/07:15pm 17.5 15.4 12.4 72 2.8 E 15 20 8 11 1015.0 - 0.0
16/07:00pm 17.8 15.7 12.4 70 3.0 E 15 19 8 10 1014.8 - 0.0
16/06:45pm 17.8 16.1 12.3 70 3.1 E 13 19 7 10 1014.7 - 0.0
16/06:30pm 17.9 15.7 12.2 69 3.2 E 15 22 8 12 1014.5 - 0.0
16/06:15pm 18.0 15.0 12.1 68 3.3 E 19 28 10 15 1014.4 - 0.0
16/06:00pm 18.3 14.8 12.1 67 3.4 ENE 22 26 12 14 1014.2 - 0.0
16/05:45pm 18.5 15.0 12.1 66 3.6 E 22 28 12 15 1014.1 - 0.0
16/05:30pm 18.7 15.1 11.9 64 3.8 ENE 22 26 12 14 1014.0 - 0.0
16/05:15pm 19.0 15.8 12.0 64 3.9 E 20 26 11 14 1014.0 - 0.0
16/05:00pm 19.1 15.2 12.0 63 4.0 E 24 30 13 16 1014.0 - 0.0
16/04:45pm 19.2 15.2 11.9 62 4.1 E 24 30 13 16 1013.9 - 0.0
16/04:30pm 19.4 15.4 11.8 61 4.2 ENE 24 30 13 16 1014.0 - 0.0
16/04:15pm 19.8 16.2 12.0 60 4.4 E 22 30 12 16 1014.0 - 0.0
16/04:00pm 19.6 15.6 11.9 61 4.3 E 24 32 13 17 1014.2 - 0.0
16/03:45pm 19.7 16.1 11.9 60 4.4 ENE 22 30 12 16 1014.3 - 0.0
16/03:30pm 19.7 16.5 12.0 61 4.3 ENE 20 24 11 13 1014.5 - 0.0
16/03:15pm 19.8 16.6 11.9 60 4.4 E 20 30 11 16 1014.6 - 0.0
16/03:00pm 19.9 16.3 11.8 59 4.5 E 22 26 12 14 1014.7 - 0.0
16/02:45pm 19.9 16.7 11.8 59 4.5 ENE 20 24 11 13 1014.8 - 0.0
16/02:30pm 20.2 16.6 12.0 59 4.6 E 22 28 12 15 1014.9 - 0.0
16/02:15pm 19.6 16.3 11.7 60 4.4 ENE 20 28 11 15 1015.0 - 0.0
16/02:00pm 19.4 15.8 11.8 61 4.2 ENE 22 37 12 20 1015.2 - 0.0
16/01:45pm 19.7 15.4 12.2 62 4.2 ENE 26 39 14 21 1015.4 - 0.0
16/01:30pm 19.5 15.6 12.1 62 4.1 E 24 30 13 16 1015.5 - 0.0
16/01:15pm 19.3 16.2 12.1 63 4.0 ENE 20 28 11 15 1015.7 - 0.0
16/01:00pm 19.0 15.4 12.0 64 3.9 E 22 30 12 16 1015.8 - 0.0
16/12:45pm 19.1 15.5 12.0 63 4.0 E 22 26 12 14 1015.9 - 0.0
16/12:30pm 19.2 15.7 12.2 64 3.9 ESE 22 28 12 15 1016.0 - 0.0
16/12:15pm 18.6 15.1 12.1 66 3.6 ESE 22 26 12 14 1016.2 - 0.0
16/12:00pm 19.0 15.1 12.0 64 3.9 ESE 24 30 13 16 1016.2 - 0.0
16/11:45am 18.9 15.9 12.1 64 3.8 ESE 19 24 10 13 1016.3 - 0.0
16/11:30am 18.8 15.5 11.7 63 3.9 ESE 20 28 11 15 1016.4 - 0.0
16/11:15am 19.8 16.6 11.4 58 4.7 E 19 28 10 15 1016.3 - 0.0
16/11:00am 19.3 17.3 11.4 60 4.4 ESE 13 19 7 10 1016.4 - 0.0
16/10:45am 19.1 16.1 11.8 62 4.1 ESE 19 24 10 13 1016.3 - 0.0
16/10:30am 19.7 16.7 12.0 61 4.3 E 19 24 10 13 1016.3 - 0.0
16/10:15am 19.4 16.9 12.3 63 4.0 ESE 17 19 9 10 1016.4 - 0.0
16/10:00am 19.1 16.9 12.1 64 3.9 SE 15 20 8 11 1016.3 - 0.0
16/09:45am 19.1 16.9 12.1 64 3.9 SE 15 20 8 11 1016.2 - 0.0
16/09:30am 18.5 16.1 12.5 68 3.4 SE 17 22 9 12 1016.2 - 0.0
16/09:15am 18.3 15.3 12.4 68 3.3 ESE 20 24 11 13 1016.1 - 0.0
16/09:00am 18.0 15.1 12.8 71 2.9 SE 20 26 11 14 1016.2 - 0.0
16/08:45am 17.4 14.7 12.8 74 2.6 SSE 19 28 10 15 1016.2 - 0.0
16/08:30am 17.8 15.9 12.9 73 2.8 ESE 15 22 8 12 1016.0 - 0.0
16/08:15am 17.5 15.6 13.0 75 2.5 ESE 15 19 8 10 1015.9 - 0.0
16/08:00am 17.2 15.3 12.9 76 2.4 SE 15 20 8 11 1015.7 - 0.0
16/07:45am 16.8 14.4 12.7 77 2.3 SE 17 19 9 10 1015.4 - 0.0
16/07:30am 17.0 15.4 12.7 76 2.4 SE 13 20 7 11 1015.1 - 0.0
16/07:15am 16.8 16.3 12.8 77 2.2 SSE 7 13 4 7 1014.9 - 0.0
16/07:00am 16.1 15.2 12.7 80 1.9 SSE 9 13 5 7 1014.8 - 0.0
16/06:45am 15.5 14.2 12.5 82 1.7 SSE 11 13 6 7 1014.7 - 0.0
16/06:30am 14.9 13.2 12.3 84 1.4 SE 13 17 7 9 1014.5 - 0.0
16/06:15am 14.7 12.5 12.0 84 1.5 SE 15 17 8 9 1014.2 - 0.0
16/06:00am 14.8 12.6 12.0 83 1.5 SE 15 17 8 9 1014.1 - 0.0
16/05:45am 14.9 12.3 12.1 83 1.5 SSE 17 22 9 12 1013.8 - 0.0
16/05:30am 14.9 11.8 12.1 83 1.5 SSE 20 22 11 12 1013.4 - 0.0
16/05:15am 15.0 11.9 12.1 83 1.6 SSE 20 24 11 13 1013.2 - 0.0
16/05:00am 14.9 12.3 12.1 83 1.5 SSE 17 22 9 12 1013.1 - 0.0
16/04:45am 14.9 12.3 12.0 83 1.6 SSE 17 22 9 12 1013.0 - 0.0
16/04:30am 15.1 12.1 12.0 82 1.7 SE 19 22 10 12 1012.9 - 0.0
16/04:15am 15.3 11.8 12.1 81 1.8 SSE 22 28 12 15 1012.8 - 0.0
16/04:00am 15.4 11.9 12.1 81 1.8 SSE 22 30 12 16 1012.7 - 0.0
16/03:45am 15.5 12.0 12.1 80 1.9 SE 22 30 12 16 1012.8 - 0.0
16/03:30am 15.7 11.8 12.1 79 2.0 SSE 24 30 13 16 1012.8 - 0.0
16/03:15am 15.9 10.9 12.2 78 2.0 SSE 30 35 16 19 1012.8 - 0.0
16/03:00am 15.9 11.6 12.2 78 2.0 SSE 26 33 14 18 1012.8 - 0.0
16/02:45am 16.0 11.3 12.1 77 2.1 SSE 28 33 15 18 1012.7 - 0.0
16/02:30am 16.1 11.4 12.1 77 2.2 SSE 28 35 15 19 1012.8 - 0.0
16/02:15am 16.1 11.8 11.9 76 2.3 SSE 26 33 14 18 1012.7 - 0.0
16/02:00am 16.1 11.3 11.8 75 2.4 SSE 28 37 15 20 1012.5 - 0.0
16/01:45am 16.2 11.5 11.9 75 2.4 SSE 28 33 15 18 1012.5 - 0.0
16/01:30am 16.2 11.5 11.9 75 2.4 SSE 28 33 15 18 1012.4 - 0.0
16/01:15am 16.3 12.4 12.0 75 2.4 SSE 24 33 13 18 1012.9 - 0.0
16/01:00am 16.5 12.6 12.1 75 2.4 SSE 24 30 13 16 1012.1 - 0.0
16/12:45am 16.5 12.2 12.1 75 2.4 SSE 26 30 14 16 1012.0 - 0.0
16/12:30am 16.6 12.0 12.2 75 2.4 SSE 28 33 15 18 1011.9 - 0.0
16/12:15am 16.7 11.8 12.4 76 2.4 SSE 30 37 16 20 1011.8 - 0.0
16/12:00am 16.8 11.9 12.5 76 2.4 SSE 30 35 16 19 1011.7 - 0.0
 
Date/Time
EDT
Temp
°C
App
Temp
°C
Dew
Point
°C
Rel
Hum
%
Delta-T
°C
Wind Press
QNH
hPa
Press
MSL
hPa
Rain since
9am
mm
Dir  Spd
km/h
Gust
km/h
Spd
kts
Gust
kts
15/11:45pm 17.0 12.8 12.5 75 2.5 SSE 26 33 14 18 1011.5 - 0.0
15/11:30pm 17.3 13.6 12.7 74 2.6 SSE 24 30 13 16 1011.3 - 0.0
15/11:15pm 17.7 13.3 12.9 73 2.7 SSE 28 32 15 17 1011.0 - 0.0
15/11:00pm 18.1 14.5 13.1 72 2.8 SSE 24 33 13 18 1010.8 - 0.0
15/10:45pm 18.5 15.3 13.1 71 3.1 SE 22 26 12 14 1010.6 - 0.0
15/10:30pm 19.4 16.4 12.4 64 3.9 SE 20 24 11 13 1010.4 - 0.0
15/10:15pm 21.7 17.9 9.2 44 6.7 SE 19 22 10 12 1010.1 - 0.0
15/10:00pm 25.0 20.2 -2.5 16 12.2 SSW 13 19 7 10 1009.9 - 0.0
15/09:45pm 25.6 19.3 -3.6 14 12.7 WSW 20 24 11 13 1009.6 - 0.0
15/09:30pm 26.0 19.0 -3.8 14 13.0 WSW 24 28 13 15 1009.3 - 0.0
15/09:15pm 26.1 19.4 -3.9 13 13.0 WSW 22 28 12 15 1009.1 - 0.0
15/09:00pm 26.4 21.1 -3.2 14 13.1 WSW 15 17 8 9 1008.7 - 0.0
15/08:45pm 26.8 21.1 -3.9 13 13.4 WSW 17 22 9 12 1008.4 - 0.0
15/08:30pm 27.2 20.8 -5.2 11 13.9 WSW 20 22 11 12 1008.1 - 0.0
15/08:15pm 27.7 21.2 -6.2 10 14.3 W 20 22 11 12 1007.8 - 0.0
15/08:00pm 28.1 21.1 -6.8 9 14.7 W 22 24 12 13 1007.5 - 0.0
15/07:45pm 28.4 21.3 -7.8 9 15.0 W 22 30 12 16 1007.3 - 0.0
15/07:30pm 28.9 22.1 -8.8 8 15.4 WSW 20 24 11 13 1007.0 - 0.0
15/07:15pm 29.4 21.4 -9.7 7 15.8 WSW 26 35 14 19 1006.7 - 0.0
15/07:00pm 29.7 21.7 -9.9 7 16.0 WSW 26 35 14 19 1006.4 - 0.0
15/06:45pm 30.0 22.0 -10.6 6 16.2 WSW 26 37 14 20 1006.1 - 0.0
15/06:30pm 30.1 21.3 -11.2 6 16.4 WSW 30 37 16 20 1005.8 - 0.0
15/06:15pm 30.3 22.2 -11.9 6 16.5 WSW 26 33 14 18 1005.5 - 0.0
15/06:00pm 30.8 20.9 -13.2 5 17.0 WSW 35 43 19 23 1005.3 - 0.0
15/05:45pm 31.5 21.6 -13.6 5 17.4 WSW 35 52 19 28 1005.0 - 0.0
15/05:30pm 31.5 23.0 -11.8 5 17.2 WSW 28 41 15 22 1004.9 - 0.0
15/05:15pm 31.7 21.4 -12.5 5 17.4 WSW 37 46 20 25 1004.8 - 0.0
15/05:00pm 31.9 20.8 -14.5 4 17.7 WSW 41 50 22 27 1004.7 - 0.0
15/04:45pm 32.1 21.4 -13.1 5 17.7 WSW 39 48 21 26 1004.7 - 0.0
15/04:30pm 32.5 24.1 -9.9 6 17.6 WSW 28 39 15 21 1004.6 - 0.0
15/04:15pm 32.1 23.8 -9.6 6 17.3 WSW 28 41 15 22 1004.7 - 0.0
15/04:00pm 32.4 24.4 -10.4 6 17.6 WSW 26 37 14 20 1004.7 - 0.0
15/03:45pm 32.5 24.9 -10.3 6 17.6 WSW 24 35 13 19 1004.8 - 0.0
15/03:30pm 32.1 24.5 -9.2 6 17.2 WSW 24 30 13 16 1004.9 - 0.0
15/03:15pm 31.8 24.7 -8.2 7 16.9 WSW 22 37 12 20 1005.1 - 0.0
15/03:00pm 31.6 23.9 -6.2 8 16.5 W 26 35 14 19 1005.3 - 0.0
15/02:45pm 31.2 24.9 -3.6 10 15.9 WNW 20 35 11 19 1005.4 - 0.0
15/02:30pm 31.0 24.5 -2.6 11 15.5 W 22 33 12 18 1005.7 - 0.0
15/02:15pm 31.0 23.4 -2.2 11 15.5 WNW 28 37 15 20 1005.8 - 0.0

Other formats

Comma delimited format used in spreadsheet applications
http://www.bom.gov.au/fwo/IDN60801/IDN60801.95757.axf

JavaScript Object Notation format (JSON) in row-major order
http://www.bom.gov.au/fwo/IDN60801/IDN60801.95757.json

Data quality

Most of these data are generated automatically and are frequently updated. Quality checks on data are not normally performed. It is possible for incorrect values to appear. Refer to information at About Latest Weather Observations and please check the disclaimer before using these data.